sensor_id;sensor_type;location;lat;lon;timestamp;temperature;humidity
32524;DHT22;18965;52.242;20.886;2023-05-07T00:00:00;7.70;84.60
32524;DHT22;18965;52.242;20.886;2023-05-07T00:02:26;7.70;84.60
32524;DHT22;18965;52.242;20.886;2023-05-07T00:04:52;7.70;84.70
32524;DHT22;18965;52.242;20.886;2023-05-07T00:07:18;7.70;84.80
32524;DHT22;18965;52.242;20.886;2023-05-07T00:09:44;7.70;84.80
32524;DHT22;18965;52.242;20.886;2023-05-07T00:12:09;7.70;84.90
32524;DHT22;18965;52.242;20.886;2023-05-07T00:14:35;7.70;84.80
32524;DHT22;18965;52.242;20.886;2023-05-07T00:17:01;7.70;84.90
32524;DHT22;18965;52.242;20.886;2023-05-07T00:19:27;7.70;85.00
32524;DHT22;18965;52.242;20.886;2023-05-07T00:21:53;7.70;84.90
32524;DHT22;18965;52.242;20.886;2023-05-07T00:24:19;7.70;84.90
32524;DHT22;18965;52.242;20.886;2023-05-07T00:26:45;7.70;84.90
32524;DHT22;18965;52.242;20.886;2023-05-07T00:29:11;7.70;85.00
32524;DHT22;18965;52.242;20.886;2023-05-07T00:31:36;7.70;85.00
32524;DHT22;18965;52.242;20.886;2023-05-07T00:34:02;7.70;85.10
32524;DHT22;18965;52.242;20.886;2023-05-07T00:36:28;7.70;85.10
32524;DHT22;18965;52.242;20.886;2023-05-07T00:38:54;7.70;85.00
32524;DHT22;18965;52.242;20.886;2023-05-07T00:41:20;7.70;85.00
32524;DHT22;18965;52.242;20.886;2023-05-07T00:43:46;7.60;85.00
32524;DHT22;18965;52.242;20.886;2023-05-07T00:46:13;7.60;85.10
32524;DHT22;18965;52.242;20.886;2023-05-07T00:48:41;7.60;85.10
32524;DHT22;18965;52.242;20.886;2023-05-07T00:51:06;7.60;85.10
32524;DHT22;18965;52.242;20.886;2023-05-07T00:53:32;7.60;85.00
32524;DHT22;18965;52.242;20.886;2023-05-07T00:55:58;7.50;85.20
32524;DHT22;18965;52.242;20.886;2023-05-07T00:58:26;7.50;85.10
32524;DHT22;18965;52.242;20.886;2023-05-07T01:00:52;7.50;85.20
32524;DHT22;18965;52.242;20.886;2023-05-07T01:03:17;7.50;86.10
32524;DHT22;18965;52.242;20.886;2023-05-07T01:05:45;7.40;85.70
32524;DHT22;18965;52.242;20.886;2023-05-07T01:08:11;7.30;85.80
32524;DHT22;18965;52.242;20.886;2023-05-07T01:10:38;7.30;85.30
32524;DHT22;18965;52.242;20.886;2023-05-07T01:13:09;7.30;85.40
32524;DHT22;18965;52.242;20.886;2023-05-07T01:15:36;7.30;85.60
32524;DHT22;18965;52.242;20.886;2023-05-07T01:18:02;7.30;85.90
32524;DHT22;18965;52.242;20.886;2023-05-07T01:20:28;7.20;86.40
32524;DHT22;18965;52.242;20.886;2023-05-07T01:22:54;7.20;86.00
32524;DHT22;18965;52.242;20.886;2023-05-07T01:25:20;7.20;86.10
32524;DHT22;18965;52.242;20.886;2023-05-07T01:27:46;7.20;86.00
32524;DHT22;18965;52.242;20.886;2023-05-07T01:30:12;7.10;86.10
32524;DHT22;18965;52.242;20.886;2023-05-07T01:32:45;7.20;86.00
32524;DHT22;18965;52.242;20.886;2023-05-07T01:35:19;7.10;86.00
32524;DHT22;18965;52.242;20.886;2023-05-07T01:37:46;7.10;86.50
32524;DHT22;18965;52.242;20.886;2023-05-07T01:40:13;7.00;86.40
32524;DHT22;18965;52.242;20.886;2023-05-07T01:42:40;7.00;85.80
32524;DHT22;18965;52.242;20.886;2023-05-07T01:45:07;7.10;85.90
32524;DHT22;18965;52.242;20.886;2023-05-07T01:47:33;7.10;86.40
32524;DHT22;18965;52.242;20.886;2023-05-07T01:50:00;7.00;86.30
32524;DHT22;18965;52.242;20.886;2023-05-07T01:52:27;7.10;86.70
32524;DHT22;18965;52.242;20.886;2023-05-07T01:54:53;7.10;86.40
32524;DHT22;18965;52.242;20.886;2023-05-07T01:57:19;7.00;87.10
32524;DHT22;18965;52.242;20.886;2023-05-07T01:59:44;7.00;86.60
32524;DHT22;18965;52.242;20.886;2023-05-07T02:02:10;7.00;86.80
32524;DHT22;18965;52.242;20.886;2023-05-07T02:04:36;7.00;87.20
32524;DHT22;18965;52.242;20.886;2023-05-07T02:07:02;6.90;86.80
32524;DHT22;18965;52.242;20.886;2023-05-07T02:09:27;6.90;87.50
32524;DHT22;18965;52.242;20.886;2023-05-07T02:11:53;6.90;86.80
32524;DHT22;18965;52.242;20.886;2023-05-07T02:14:19;6.90;87.10
32524;DHT22;18965;52.242;20.886;2023-05-07T02:16:46;6.90;86.70
32524;DHT22;18965;52.242;20.886;2023-05-07T02:19:11;6.90;87.30
32524;DHT22;18965;52.242;20.886;2023-05-07T02:21:37;6.90;87.60
32524;DHT22;18965;52.242;20.886;2023-05-07T02:24:03;6.90;87.00
32524;DHT22;18965;52.242;20.886;2023-05-07T02:26:28;6.90;86.90
32524;DHT22;18965;52.242;20.886;2023-05-07T02:28:54;6.90;87.30
32524;DHT22;18965;52.242;20.886;2023-05-07T02:31:20;6.90;87.10
32524;DHT22;18965;52.242;20.886;2023-05-07T02:33:45;6.90;87.30
32524;DHT22;18965;52.242;20.886;2023-05-07T02:36:12;6.90;87.40
32524;DHT22;18965;52.242;20.886;2023-05-07T02:38:37;6.80;87.30
32524;DHT22;18965;52.242;20.886;2023-05-07T02:41:04;6.90;87.30
32524;DHT22;18965;52.242;20.886;2023-05-07T02:43:29;6.80;87.30
32524;DHT22;18965;52.242;20.886;2023-05-07T02:46:05;6.80;87.10
32524;DHT22;18965;52.242;20.886;2023-05-07T02:48:31;6.80;87.20
32524;DHT22;18965;52.242;20.886;2023-05-07T02:50:58;6.90;87.20
32524;DHT22;18965;52.242;20.886;2023-05-07T02:53:24;6.90;87.80
32524;DHT22;18965;52.242;20.886;2023-05-07T02:55:53;6.90;87.30
32524;DHT22;18965;52.242;20.886;2023-05-07T02:58:19;6.80;87.50
32524;DHT22;18965;52.242;20.886;2023-05-07T03:00:45;6.90;87.30
32524;DHT22;18965;52.242;20.886;2023-05-07T03:03:11;6.90;87.30
32524;DHT22;18965;52.242;20.886;2023-05-07T03:05:37;6.90;87.70
32524;DHT22;18965;52.242;20.886;2023-05-07T03:08:03;6.90;87.60
32524;DHT22;18965;52.242;20.886;2023-05-07T03:10:29;6.90;87.60
32524;DHT22;18965;52.242;20.886;2023-05-07T03:12:55;6.90;87.60
32524;DHT22;18965;52.242;20.886;2023-05-07T03:15:21;6.90;87.50
32524;DHT22;18965;52.242;20.886;2023-05-07T03:17:47;6.90;87.50
32524;DHT22;18965;52.242;20.886;2023-05-07T03:20:13;6.90;87.40
32524;DHT22;18965;52.242;20.886;2023-05-07T03:22:39;7.00;87.40
32524;DHT22;18965;52.242;20.886;2023-05-07T03:25:05;7.00;87.40
32524;DHT22;18965;52.242;20.886;2023-05-07T03:27:31;7.00;87.30
32524;DHT22;18965;52.242;20.886;2023-05-07T03:29:57;7.00;87.70
32524;DHT22;18965;52.242;20.886;2023-05-07T03:32:23;7.00;87.60
32524;DHT22;18965;52.242;20.886;2023-05-07T03:34:48;7.00;87.60
32524;DHT22;18965;52.242;20.886;2023-05-07T03:37:14;7.00;87.50
32524;DHT22;18965;52.242;20.886;2023-05-07T03:39:40;7.00;87.60
32524;DHT22;18965;52.242;20.886;2023-05-07T03:42:06;7.00;87.40
32524;DHT22;18965;52.242;20.886;2023-05-07T03:44:31;7.00;87.80
32524;DHT22;18965;52.242;20.886;2023-05-07T03:46:57;7.00;87.70
32524;DHT22;18965;52.242;20.886;2023-05-07T03:49:23;7.00;87.70
32524;DHT22;18965;52.242;20.886;2023-05-07T03:51:48;7.00;87.40
32524;DHT22;18965;52.242;20.886;2023-05-07T03:54:14;7.00;87.70
32524;DHT22;18965;52.242;20.886;2023-05-07T03:56:40;7.00;87.70
32524;DHT22;18965;52.242;20.886;2023-05-07T03:59:06;7.00;87.50
32524;DHT22;18965;52.242;20.886;2023-05-07T04:01:31;7.00;87.70
32524;DHT22;18965;52.242;20.886;2023-05-07T04:03:57;7.10;87.60
32524;DHT22;18965;52.242;20.886;2023-05-07T04:06:23;7.10;87.70
32524;DHT22;18965;52.242;20.886;2023-05-07T04:08:48;7.10;87.70
32524;DHT22;18965;52.242;20.886;2023-05-07T04:11:14;7.10;87.70
32524;DHT22;18965;52.242;20.886;2023-05-07T04:13:40;7.10;87.60
32524;DHT22;18965;52.242;20.886;2023-05-07T04:16:06;7.10;87.50
32524;DHT22;18965;52.242;20.886;2023-05-07T04:18:31;7.10;87.60
32524;DHT22;18965;52.242;20.886;2023-05-07T04:20:57;7.10;87.70
32524;DHT22;18965;52.242;20.886;2023-05-07T04:23:23;7.10;87.70
32524;DHT22;18965;52.242;20.886;2023-05-07T04:25:48;7.10;87.70
32524;DHT22;18965;52.242;20.886;2023-05-07T04:28:15;7.10;87.40
32524;DHT22;18965;52.242;20.886;2023-05-07T04:30:41;7.10;87.70
32524;DHT22;18965;52.242;20.886;2023-05-07T04:33:06;7.10;87.80
32524;DHT22;18965;52.242;20.886;2023-05-07T04:35:32;7.10;87.80
32524;DHT22;18965;52.242;20.886;2023-05-07T04:37:58;7.10;88.10
32524;DHT22;18965;52.242;20.886;2023-05-07T04:40:25;7.10;87.90
32524;DHT22;18965;52.242;20.886;2023-05-07T04:42:51;7.10;87.80
32524;DHT22;18965;52.242;20.886;2023-05-07T04:45:18;7.20;87.80
32524;DHT22;18965;52.242;20.886;2023-05-07T04:47:44;7.20;87.80
32524;DHT22;18965;52.242;20.886;2023-05-07T04:50:10;7.20;87.80
32524;DHT22;18965;52.242;20.886;2023-05-07T04:52:36;7.30;87.80
32524;DHT22;18965;52.242;20.886;2023-05-07T04:55:02;7.30;87.90
32524;DHT22;18965;52.242;20.886;2023-05-07T04:57:28;7.30;87.90
32524;DHT22;18965;52.242;20.886;2023-05-07T04:59:54;7.30;87.80
32524;DHT22;18965;52.242;20.886;2023-05-07T05:02:19;7.40;87.80
32524;DHT22;18965;52.242;20.886;2023-05-07T05:04:45;7.40;87.80
32524;DHT22;18965;52.242;20.886;2023-05-07T05:07:11;7.50;87.80
32524;DHT22;18965;52.242;20.886;2023-05-07T05:09:37;7.50;87.70
32524;DHT22;18965;52.242;20.886;2023-05-07T05:12:02;7.60;87.60
32524;DHT22;18965;52.242;20.886;2023-05-07T05:14:29;7.60;87.50
32524;DHT22;18965;52.242;20.886;2023-05-07T16:35:38;13.40;55.40
32524;DHT22;18965;52.242;20.886;2023-05-07T16:40:40;13.30;58.70
32524;DHT22;18965;52.242;20.886;2023-05-07T16:47:58;13.30;55.80
32524;DHT22;18965;52.242;20.886;2023-05-07T16:50:25;13.30;55.90
32524;DHT22;18965;52.242;20.886;2023-05-07T16:52:51;13.20;55.90
32524;DHT22;18965;52.242;20.886;2023-05-07T16:55:17;13.20;56.20
32524;DHT22;18965;52.242;20.886;2023-05-07T17:02:36;13.10;56.20
32524;DHT22;18965;52.242;20.886;2023-05-07T17:05:02;13.10;56.20
32524;DHT22;18965;52.242;20.886;2023-05-07T17:09:56;13.00;56.10
32524;DHT22;18965;52.242;20.886;2023-05-07T17:24:33;12.70;56.50
32524;DHT22;18965;52.242;20.886;2023-05-07T17:26:59;12.60;57.20
32524;DHT22;18965;52.242;20.886;2023-05-07T17:29:25;12.60;57.30
32524;DHT22;18965;52.242;20.886;2023-05-07T17:31:51;12.50;57.60
32524;DHT22;18965;52.242;20.886;2023-05-07T17:34:16;12.50;57.50
32524;DHT22;18965;52.242;20.886;2023-05-07T17:36:42;12.40;57.60
32524;DHT22;18965;52.242;20.886;2023-05-07T17:39:07;12.40;57.80
32524;DHT22;18965;52.242;20.886;2023-05-07T17:41:36;12.30;58.00
32524;DHT22;18965;52.242;20.886;2023-05-07T17:44:02;12.30;58.10
32524;DHT22;18965;52.242;20.886;2023-05-07T17:46:28;12.20;58.00
32524;DHT22;18965;52.242;20.886;2023-05-07T17:48:54;12.10;57.70
32524;DHT22;18965;52.242;20.886;2023-05-07T17:58:40;12.00;63.30
32524;DHT22;18965;52.242;20.886;2023-05-07T18:10:51;11.50;58.20
32524;DHT22;18965;52.242;20.886;2023-05-07T18:15:45;11.40;58.40
32524;DHT22;18965;52.242;20.886;2023-05-07T18:18:11;11.50;58.60
32524;DHT22;18965;52.242;20.886;2023-05-07T18:20:37;11.30;58.80
32524;DHT22;18965;52.242;20.886;2023-05-07T18:23:03;11.30;59.10
32524;DHT22;18965;52.242;20.886;2023-05-07T18:27:55;11.10;59.30
32524;DHT22;18965;52.242;20.886;2023-05-07T18:30:21;11.00;59.50
32524;DHT22;18965;52.242;20.886;2023-05-07T18:35:13;10.40;67.90
32524;DHT22;18965;52.242;20.886;2023-05-07T18:40:05;11.00;59.50
32524;DHT22;18965;52.242;20.886;2023-05-07T18:42:31;10.80;65.90
32524;DHT22;18965;52.242;20.886;2023-05-07T18:49:49;10.70;65.10
32524;DHT22;18965;52.242;20.886;2023-05-07T18:52:16;10.80;65.60
32524;DHT22;18965;52.242;20.886;2023-05-07T18:54:42;10.50;72.50
32524;DHT22;18965;52.242;20.886;2023-05-07T19:02:00;10.60;77.00
32524;DHT22;18965;52.242;20.886;2023-05-07T19:11:44;10.30;63.20
32524;DHT22;18965;52.242;20.886;2023-05-07T19:14:10;10.00;76.90
32524;DHT22;18965;52.242;20.886;2023-05-07T19:19:02;10.00;64.20
32524;DHT22;18965;52.242;20.886;2023-05-07T19:26:22;10.00;61.70
32524;DHT22;18965;52.242;20.886;2023-05-07T19:28:48;9.90;61.80
32524;DHT22;18965;52.242;20.886;2023-05-07T19:31:21;9.90;62.00
32524;DHT22;18965;52.242;20.886;2023-05-07T19:33:48;9.80;72.70
32524;DHT22;18965;52.242;20.886;2023-05-07T19:36:14;9.40;77.30
32524;DHT22;18965;52.242;20.886;2023-05-07T19:56:04;9.60;62.70
32524;DHT22;18965;52.242;20.886;2023-05-07T20:15:38;9.30;64.00
32524;DHT22;18965;52.242;20.886;2023-05-07T20:49:51;8.90;65.00
32524;DHT22;18965;52.242;20.886;2023-05-07T20:52:18;8.90;66.10
32524;DHT22;18965;52.242;20.886;2023-05-07T20:54:43;8.80;66.50
32524;DHT22;18965;52.242;20.886;2023-05-07T20:57:12;8.80;66.80
32524;DHT22;18965;52.242;20.886;2023-05-07T20:59:38;8.80;67.00
32524;DHT22;18965;52.242;20.886;2023-05-07T21:02:08;8.80;67.30
32524;DHT22;18965;52.242;20.886;2023-05-07T21:04:34;8.70;67.40
32524;DHT22;18965;52.242;20.886;2023-05-07T21:07:00;8.70;67.50
32524;DHT22;18965;52.242;20.886;2023-05-07T21:09:26;8.70;67.80
32524;DHT22;18965;52.242;20.886;2023-05-07T21:11:52;8.60;67.90
32524;DHT22;18965;52.242;20.886;2023-05-07T21:14:18;8.60;68.10
32524;DHT22;18965;52.242;20.886;2023-05-07T21:16:44;8.60;68.20
32524;DHT22;18965;52.242;20.886;2023-05-07T21:19:11;8.50;68.30
32524;DHT22;18965;52.242;20.886;2023-05-07T21:21:37;8.40;68.40
32524;DHT22;18965;52.242;20.886;2023-05-07T21:24:04;8.40;68.60
32524;DHT22;18965;52.242;20.886;2023-05-07T21:26:30;8.40;68.60
32524;DHT22;18965;52.242;20.886;2023-05-07T21:28:55;8.40;68.80
32524;DHT22;18965;52.242;20.886;2023-05-07T21:31:21;8.30;68.90
32524;DHT22;18965;52.242;20.886;2023-05-07T21:33:54;8.30;69.00
32524;DHT22;18965;52.242;20.886;2023-05-07T21:36:24;8.20;69.10
32524;DHT22;18965;52.242;20.886;2023-05-07T21:38:53;8.20;69.30
32524;DHT22;18965;52.242;20.886;2023-05-07T21:41:19;8.20;69.30
32524;DHT22;18965;52.242;20.886;2023-05-07T21:43:45;8.10;69.40
32524;DHT22;18965;52.242;20.886;2023-05-07T21:46:11;8.10;69.50
32524;DHT22;18965;52.242;20.886;2023-05-07T21:48:37;8.00;69.60
32524;DHT22;18965;52.242;20.886;2023-05-07T21:51:05;8.00;69.70
32524;DHT22;18965;52.242;20.886;2023-05-07T21:53:32;8.00;69.90
32524;DHT22;18965;52.242;20.886;2023-05-07T21:56:16;7.80;69.80
32524;DHT22;18965;52.242;20.886;2023-05-07T21:58:49;7.90;69.90
32524;DHT22;18965;52.242;20.886;2023-05-07T22:01:15;7.90;70.00
32524;DHT22;18965;52.242;20.886;2023-05-07T22:03:41;7.80;70.10
32524;DHT22;18965;52.242;20.886;2023-05-07T22:06:07;7.80;70.20
32524;DHT22;18965;52.242;20.886;2023-05-07T22:08:32;7.80;70.30
32524;DHT22;18965;52.242;20.886;2023-05-07T22:10:58;7.80;70.30
32524;DHT22;18965;52.242;20.886;2023-05-07T22:13:24;7.80;70.40
32524;DHT22;18965;52.242;20.886;2023-05-07T22:15:50;7.80;70.40
32524;DHT22;18965;52.242;20.886;2023-05-07T22:18:15;7.70;70.50
32524;DHT22;18965;52.242;20.886;2023-05-07T22:20:41;7.80;70.50
32524;DHT22;18965;52.242;20.886;2023-05-07T22:23:07;7.70;70.50
32524;DHT22;18965;52.242;20.886;2023-05-07T22:25:32;7.70;70.60
32524;DHT22;18965;52.242;20.886;2023-05-07T22:28:01;7.70;70.70
32524;DHT22;18965;52.242;20.886;2023-05-07T22:30:27;7.70;70.70
32524;DHT22;18965;52.242;20.886;2023-05-07T22:32:53;7.70;70.80
32524;DHT22;18965;52.242;20.886;2023-05-07T22:35:18;7.60;70.90
32524;DHT22;18965;52.242;20.886;2023-05-07T22:37:44;7.60;71.00
32524;DHT22;18965;52.242;20.886;2023-05-07T22:40:10;7.60;71.10
32524;DHT22;18965;52.242;20.886;2023-05-07T22:42:36;7.60;71.20
32524;DHT22;18965;52.242;20.886;2023-05-07T22:45:02;7.60;71.30
32524;DHT22;18965;52.242;20.886;2023-05-07T22:47:28;7.60;71.40
32524;DHT22;18965;52.242;20.886;2023-05-07T22:49:57;7.50;71.30
32524;DHT22;18965;52.242;20.886;2023-05-07T22:52:27;7.50;71.30
32524;DHT22;18965;52.242;20.886;2023-05-07T22:54:52;7.50;71.40
32524;DHT22;18965;52.242;20.886;2023-05-07T22:57:18;7.50;71.50
32524;DHT22;18965;52.242;20.886;2023-05-07T22:59:44;7.50;71.60
32524;DHT22;18965;52.242;20.886;2023-05-07T23:02:10;7.50;71.60
32524;DHT22;18965;52.242;20.886;2023-05-07T23:04:35;7.50;71.70
32524;DHT22;18965;52.242;20.886;2023-05-07T23:07:01;7.40;71.60
32524;DHT22;18965;52.242;20.886;2023-05-07T23:09:30;7.40;71.70
32524;DHT22;18965;52.242;20.886;2023-05-07T23:11:58;7.40;71.80
32524;DHT22;18965;52.242;20.886;2023-05-07T23:14:26;7.40;71.80
32524;DHT22;18965;52.242;20.886;2023-05-07T23:16:54;7.30;71.90
32524;DHT22;18965;52.242;20.886;2023-05-07T23:19:19;7.30;71.90
32524;DHT22;18965;52.242;20.886;2023-05-07T23:21:45;7.30;72.00
32524;DHT22;18965;52.242;20.886;2023-05-07T23:24:11;7.30;72.10
32524;DHT22;18965;52.242;20.886;2023-05-07T23:26:37;7.20;72.10
32524;DHT22;18965;52.242;20.886;2023-05-07T23:29:03;7.20;72.10
32524;DHT22;18965;52.242;20.886;2023-05-07T23:31:29;7.20;72.20
32524;DHT22;18965;52.242;20.886;2023-05-07T23:33:55;7.20;72.30
32524;DHT22;18965;52.242;20.886;2023-05-07T23:36:20;7.10;72.30
32524;DHT22;18965;52.242;20.886;2023-05-07T23:38:46;7.10;72.40
32524;DHT22;18965;52.242;20.886;2023-05-07T23:41:12;7.00;72.40
32524;DHT22;18965;52.242;20.886;2023-05-07T23:43:37;7.00;72.50
32524;DHT22;18965;52.242;20.886;2023-05-07T23:46:03;7.00;72.50
32524;DHT22;18965;52.242;20.886;2023-05-07T23:48:29;6.90;72.50
32524;DHT22;18965;52.242;20.886;2023-05-07T23:50:55;6.90;72.50
32524;DHT22;18965;52.242;20.886;2023-05-07T23:53:20;6.90;72.50
32524;DHT22;18965;52.242;20.886;2023-05-07T23:55:46;6.80;72.60
32524;DHT22;18965;52.242;20.886;2023-05-07T23:58:12;6.80;72.70
